Time;durP1;ratioP1;P1;durP2;ratioP2;P2;SDS_P1;SDS_P2;PMS_P1;PMS_P2;Temp;Humidity;BMP_temperature;BMP_pressure;BME280_temperature;BME280_humidity;BME280_pressure;Samples;Min_cycle;Max_cycle;Signal;HPM_P1;HPM_P2
2021/06/04 00:04:53;;;;;;;17.25;11.05;;;;;;;9.43;68.34;99888.97;4053764;86;21689;-79
2021/06/04 00:10:59;;;;;;;18.92;12.58;;;;;;;9.50;69.30;99877.70;4059619;86;21431;-78
2021/06/04 00:17:06;;;;;;;23.38;13.53;;;;;;;9.65;69.46;99880.84;4059648;86;21069;-79
2021/06/04 00:23:09;;;;;;;;;;;;;;;9.78;69.16;99884.54;4062030;86;21118;-79
2021/06/04 00:29:12;;;;;;;23.85;14.23;;;;;;;9.67;70.42;99884.00;4058574;86;20178;-79
2021/06/04 00:35:14;;;;;;;25.52;14.83;;;;;;;9.51;69.41;99880.65;4057539;86;21559;-78
2021/06/04 00:41:23;;;;;;;26.12;14.73;;;;;;;9.27;69.38;99884.80;4057023;86;21099;-78
2021/06/04 00:47:28;;;;;;;21.33;14.73;;;;;;;9.09;69.56;99885.41;4055087;86;21035;-78
2021/06/04 00:53:30;;;;;;;28.05;14.98;;;;;;;8.98;70.04;99878.25;4053084;85;21095;-79
2021/06/04 00:59:39;;;;;;;24.18;14.55;;;;;;;9.01;70.38;99883.02;4043408;86;21091;-78
2021/06/04 01:05:42;;;;;;;;;;;;;;;9.05;70.76;99879.05;4045532;86;21119;-78
2021/06/04 01:12:04;;;;;;;28.92;14.68;;;;;;;8.84;71.27;99875.08;4041205;86;20199;-78
2021/06/04 01:18:20;;;;;;;26.17;16.00;;;;;;;8.70;70.99;99875.98;4022150;86;21087;-79
2021/06/04 01:24:56;;;;;;;22.42;12.85;;;;;;;8.75;71.35;99884.52;4040877;86;21217;-79
2021/06/04 01:31:14;;;;;;;22.50;13.90;;;;;;;8.96;71.74;99875.06;4039927;86;21113;-77
2021/06/04 01:37:26;;;;;;;28.00;15.53;;;;;;;8.84;71.06;99872.34;4046452;86;21088;-78
2021/06/04 01:43:49;;;;;;;22.62;14.60;;;;;;;8.56;71.26;99874.72;4046639;86;21072;-79
2021/06/04 01:49:53;;;;;;;19.65;12.98;;;;;;;8.43;71.82;99875.28;4046036;86;21123;-79
2021/06/04 01:56:18;;;;;;;22.73;11.75;;;;;;;8.40;71.97;99871.86;4026801;86;21063;-79
2021/06/04 02:02:24;;;;;;;21.17;12.53;;;;;;;8.63;72.70;99874.38;4041693;86;21091;-79
2021/06/04 02:08:39;;;;;;;18.80;11.40;;;;;;;8.72;72.53;99872.92;4045954;86;21099;-79
2021/06/04 02:14:48;;;;;;;19.02;12.35;;;;;;;8.65;72.63;99882.23;4041423;86;21091;-79
2021/06/04 02:21:17;;;;;;;17.52;11.65;;;;;;;8.48;72.07;99879.72;4039793;86;21075;-78
2021/06/04 02:27:27;;;;;;;16.40;10.60;;;;;;;8.29;72.20;99880.81;4045503;86;21020;-79
2021/06/04 02:33:36;;;;;;;20.20;13.13;;;;;;;8.16;73.01;99876.46;4118517;84;21051;-79
2021/06/04 02:39:51;;;;;;;;;;;;;;;8.16;73.13;99882.69;4114799;84;21114;-78
2021/06/04 02:46:13;;;;;;;20.08;12.53;;;;;;;8.22;74.09;99879.20;4100043;85;20502;-79
2021/06/04 02:52:39;;;;;;;15.40;10.32;;;;;;;8.15;73.42;99880.30;4111481;84;21067;-79
2021/06/04 02:59:04;;;;;;;19.65;11.90;;;;;;;8.26;73.60;99884.22;4142894;84;21011;-78
2021/06/04 03:05:17;;;;;;;17.17;11.13;;;;;;;8.12;73.49;99885.06;3997884;87;21114;-78
2021/06/04 03:11:21;;;;;;;19.45;11.22;;;;;;;8.09;73.51;99885.19;3991786;86;21158;-79
2021/06/04 03:17:27;;;;;;;17.50;11.05;;;;;;;8.04;73.57;99893.58;4042226;87;21523;-79
2021/06/04 03:23:38;;;;;;;17.45;10.68;;;;;;;8.14;74.23;99892.35;4105540;85;21104;-79
2021/06/04 03:29:42;;;;;;;17.60;10.80;;;;;;;8.28;74.23;99891.52;4102072;85;21509;-79
2021/06/04 03:35:44;;;;;;;13.60;9.48;;;;;;;8.50;74.07;99890.53;4097975;85;21032;-79
2021/06/04 03:41:49;;;;;;;14.47;9.45;;;;;;;8.57;74.10;99894.05;4103715;85;21032;-79
2021/06/04 03:47:53;;;;;;;15.95;9.98;;;;;;;8.70;74.00;99895.66;4110796;85;21091;-79
2021/06/04 03:53:55;;;;;;;14.80;10.23;;;;;;;8.71;74.19;99893.14;4106014;84;21024;-79
2021/06/04 03:59:58;;;;;;;16.15;9.00;;;;;;;8.87;74.45;99888.05;4065353;85;21092;-78
2021/06/04 04:06:01;;;;;;;15.60;9.45;;;;;;;9.11;74.30;99894.06;4140359;85;21003;-78
2021/06/04 04:12:03;;;;;;;14.80;9.98;;;;;;;9.31;74.18;99898.02;4122657;85;21073;-81
2021/06/04 04:18:16;;;;;;;19.48;10.05;;;;;;;9.49;74.38;99889.76;4058230;82;5025976;-78
2021/06/04 04:24:28;;;;;;;12.25;9.15;;;;;;;9.55;74.46;99894.42;4021636;87;21618;-79
2021/06/04 04:30:38;;;;;;;16.85;10.20;;;;;;;9.80;74.14;99889.09;4018489;87;21472;-78
2021/06/04 04:37:00;;;;;;;16.15;10.68;;;;;;;10.07;73.86;99888.86;4003523;86;21533;-79
2021/06/04 04:43:14;;;;;;;14.70;10.55;;;;;;;10.32;73.58;99888.98;3939128;88;21103;-79
2021/06/04 04:49:34;;;;;;;19.40;10.23;;;;;;;10.56;73.24;99891.54;3997259;86;21557;-78
2021/06/04 04:55:42;;;;;;;;;;;;;;;10.77;72.96;99898.93;3950768;88;21206;-79
2021/06/04 05:02:07;;;;;;;12.65;9.48;;;;;;;10.98;73.07;99899.42;3942832;88;20172;-80
2021/06/04 05:08:14;;;;;;;16.95;9.58;;;;;;;11.20;72.55;99891.14;3921142;89;21674;-78
2021/06/04 05:14:21;;;;;;;16.60;9.48;;;;;;;11.43;72.36;99898.33;3928684;88;21074;-79
2021/06/04 05:20:43;;;;;;;17.90;10.53;;;;;;;11.65;72.25;99906.46;3874621;90;21618;-78
2021/06/04 05:33:09;;;;;;;12.95;8.05;;;;;;;12.27;73.09;99902.82;3836719;90;21627;-78
2021/06/04 05:39:32;;;;;;;14.07;8.35;;;;;;;12.63;73.11;99899.55;3856764;90;21089;-79
2021/06/04 05:45:42;;;;;;;12.17;7.83;;;;;;;12.98;73.08;99904.03;3844964;90;21057;-79
2021/06/04 05:52:08;;;;;;;21.63;8.60;;;;;;;13.31;73.09;99900.83;3847762;90;21100;-79
2021/06/04 05:58:28;;;;;;;12.37;7.70;;;;;;;13.58;72.88;99898.84;3924256;89;21394;-78
2021/06/04 06:04:41;;;;;;;19.52;8.15;;;;;;;13.90;72.16;99898.67;3875577;90;21159;-78
2021/06/04 06:10:47;;;;;;;11.15;7.55;;;;;;;14.18;71.67;99902.55;3835463;90;21075;-79
2021/06/04 06:16:55;;;;;;;10.85;6.90;;;;;;;14.46;71.59;99906.78;3922474;89;21103;-80
2021/06/04 06:23:03;;;;;;;10.82;6.58;;;;;;;14.79;71.00;99903.95;3869839;90;21662;-79
2021/06/04 06:29:16;;;;;;;12.73;6.62;;;;;;;15.10;70.61;99898.69;3933423;89;21072;-79
2021/06/04 06:35:30;;;;;;;13.53;6.15;;;;;;;15.45;69.93;99897.59;3932464;88;21095;-79
2021/06/04 06:41:49;;;;;;;14.05;6.53;;;;;;;15.78;69.46;99890.24;3870609;90;21143;-80
2021/06/04 06:48:07;;;;;;;9.90;5.20;;;;;;;16.14;68.85;99898.28;4000875;83;5231523;-80
2021/06/04 06:54:23;;;;;;;7.83;5.35;;;;;;;16.62;68.36;99898.20;4171914;83;21109;-79
2021/06/04 07:00:49;;;;;;;8.60;5.58;;;;;;;17.41;67.02;99901.13;4171094;83;21058;-79
2021/06/04 07:07:02;;;;;;;11.57;4.70;;;;;;;18.21;65.95;99898.08;4130873;83;21597;-79
2021/06/04 07:13:17;;;;;;;10.43;5.50;;;;;;;18.98;65.01;99889.08;4148163;84;21822;-80
2021/06/04 07:19:27;;;;;;;10.93;5.12;;;;;;;19.80;63.40;99898.37;4124062;84;21286;-78
2021/06/04 07:25:36;;;;;;;11.28;5.47;;;;;;;20.57;62.58;99904.91;4174570;83;21031;-79
2021/06/04 07:31:38;;;;;;;11.55;5.15;;;;;;;21.23;60.32;99905.06;4168123;84;21556;-79
2021/06/04 07:37:39;;;;;;;10.23;5.05;;;;;;;21.73;59.46;99907.91;4158956;84;21698;-78
2021/06/04 07:43:46;;;;;;;9.65;5.17;;;;;;;22.06;58.69;99909.45;4174369;83;21070;-80
2021/06/04 07:49:48;;;;;;;7.80;4.30;;;;;;;22.44;56.41;99897.45;4162998;84;21050;-79
2021/06/04 07:55:49;;;;;;;8.70;3.95;;;;;;;22.68;55.60;99891.95;4164616;84;21614;-79
2021/06/04 08:01:52;;;;;;;10.25;4.10;;;;;;;22.80;54.65;99894.04;4158677;83;21029;-79
2021/06/04 08:07:55;;;;;;;10.08;3.90;;;;;;;22.95;53.57;99886.11;4160179;83;21539;-79
2021/06/04 08:14:02;;;;;;;7.58;3.20;;;;;;;22.94;52.48;99883.92;4169049;83;21077;-79
2021/06/04 08:20:08;;;;;;;8.05;3.60;;;;;;;22.90;50.65;99879.05;4172080;83;21089;-78
2021/06/04 08:26:12;;;;;;;;;;;;;;;23.02;49.78;99878.97;4164131;84;21066;-79
2021/06/04 08:32:15;;;;;;;5.35;3.25;;;;;;;22.96;49.19;99872.31;4157070;84;20178;-78
2021/06/04 08:38:17;;;;;;;5.15;3.08;;;;;;;22.89;47.70;99869.71;4159122;84;21062;-79
2021/06/04 08:44:32;;;;;;;3.60;3.02;;;;;;;23.10;48.23;99865.77;4151719;84;21058;-79
2021/06/04 08:51:13;;;;;;;6.70;3.02;;;;;;;23.13;44.31;99869.08;4156760;84;21951;-78
2021/06/04 08:57:49;;;;;;;6.70;2.80;;;;;;;23.08;46.03;99852.84;4157375;84;22231;-79
2021/06/04 09:03:59;;;;;;;6.80;2.90;;;;;;;23.12;44.67;99854.95;4176302;84;21752;-79
2021/06/04 09:10:36;;;;;;;6.85;2.87;;;;;;;23.19;43.94;99847.77;4171098;84;21038;-81
2021/06/04 09:16:47;;;;;;;6.53;2.40;;;;;;;23.16;40.85;99850.05;4173467;84;21193;-78
2021/06/04 09:22:58;;;;;;;3.58;2.15;;;;;;;23.08;39.69;99853.47;4172403;84;21065;-80
2021/06/04 09:29:18;;;;;;;3.77;2.33;;;;;;;23.34;39.46;99852.40;4178678;84;21070;-78
2021/06/04 09:35:25;;;;;;;9.15;2.60;;;;;;;23.57;37.62;99840.97;4131135;83;21097;-79
2021/06/04 09:41:42;;;;;;;3.80;2.02;;;;;;;23.51;37.29;99842.74;4167019;83;21034;-79
2021/06/04 09:48:11;;;;;;;3.17;2.80;;;;;;;23.94;37.74;99837.52;4186533;83;21125;-81
2021/06/04 09:54:36;;;;;;;4.05;2.10;;;;;;;24.47;36.96;99839.48;4135480;83;21625;-78
2021/06/04 10:01:07;;;;;;;3.77;2.00;;;;;;;24.58;36.99;99834.33;4169522;83;21042;-79
2021/06/04 10:07:30;;;;;;;6.75;2.52;;;;;;;24.77;37.42;99819.94;4171021;84;21073;-79
2021/06/04 10:14:07;;;;;;;5.22;2.52;;;;;;;24.95;36.35;99815.91;4175107;83;21154;-80
2021/06/04 10:20:46;;;;;;;4.00;2.25;;;;;;;24.82;36.08;99824.19;4154276;83;21902;-79
2021/06/04 10:26:59;;;;;;;6.62;2.72;;;;;;;24.74;34.86;99818.66;4177998;84;21565;-80
2021/06/04 10:33:26;;;;;;;8.55;2.50;;;;;;;24.52;33.16;99802.52;4178854;84;21117;-80
2021/06/04 10:39:40;;;;;;;4.72;2.33;;;;;;;25.06;33.33;99805.77;4154018;84;21365;-80
2021/06/04 10:46:02;;;;;;;6.87;2.50;;;;;;;25.46;34.62;99794.13;4189554;84;21601;-80
2021/06/04 10:52:43;;;;;;;2.87;2.30;;;;;;;25.75;33.86;99792.61;4178368;84;21324;-79
2021/06/04 10:59:15;;;;;;;5.12;2.30;;;;;;;26.20;34.98;99786.50;4167773;84;21022;-80
2021/06/04 11:05:42;;;;;;;4.83;2.65;;;;;;;26.79;34.85;99787.48;4169858;84;21054;-79
2021/06/04 11:12:26;;;;;;;7.65;2.55;;;;;;;27.40;33.89;99789.25;4172906;84;21038;-82
2021/06/04 11:18:45;;;;;;;6.08;2.33;;;;;;;28.06;32.57;99767.73;4183614;83;21487;-79
2021/06/04 11:25:07;;;;;;;3.98;2.40;;;;;;;27.52;30.23;99763.77;4173870;84;21133;-81
2021/06/04 11:31:34;;;;;;;5.35;2.20;;;;;;;27.60;30.76;99765.63;4176408;84;21026;-80
2021/06/04 11:37:45;;;;;;;3.10;2.08;;;;;;;27.61;30.19;99765.80;4151588;84;21539;-80
2021/06/04 11:44:14;;;;;;;6.50;2.30;;;;;;;28.26;30.71;99756.69;4181475;83;21070;-80
2021/06/04 11:50:45;;;;;;;3.87;2.37;;;;;;;28.48;27.42;99762.24;4186867;83;21128;-80
2021/06/04 11:57:07;;;;;;;3.75;2.17;;;;;;;28.25;29.79;99750.92;4180170;84;21089;-79
2021/06/04 12:03:25;;;;;;;3.33;2.45;;;;;;;28.46;30.12;99748.44;4154901;84;21088;-80
2021/06/04 12:09:41;;;;;;;5.97;2.17;;;;;;;28.45;30.64;99743.46;4098737;84;21820;-79
2021/06/04 12:15:59;;;;;;;3.00;2.05;;;;;;;28.03;31.30;99733.50;4154106;83;21065;-81
2021/06/04 12:22:25;;;;;;;3.95;2.27;;;;;;;27.61;31.09;99734.22;4138102;83;22227;-81
2021/06/04 12:28:34;;;;;;;4.72;3.55;;;;;;;26.98;30.40;99727.88;4141371;84;21061;-81
2021/06/04 12:34:41;;;;;;;9.15;2.60;;;;;;;26.64;30.41;99725.36;4154230;83;21014;-78
2021/06/04 12:40:52;;;;;;;6.53;2.83;;;;;;;26.36;31.42;99725.13;4137562;84;21073;-79
2021/06/04 12:46:54;;;;;;;5.17;2.50;;;;;;;26.25;31.83;99719.92;4148740;84;21662;-78
2021/06/04 12:53:25;;;;;;;4.45;2.35;;;;;;;25.96;31.64;99706.86;4145278;84;21038;-78
2021/06/04 12:59:30;;;;;;;4.37;2.40;;;;;;;25.75;32.13;99708.48;4166222;84;21082;-79
2021/06/04 13:05:34;;;;;;;4.50;2.87;;;;;;;25.42;31.20;99710.17;4196739;84;21617;-79
2021/06/04 13:11:45;;;;;;;5.08;2.65;;;;;;;25.45;32.22;99712.05;4166034;84;20998;-78
2021/06/04 13:18:03;;;;;;;4.62;2.40;;;;;;;25.36;31.90;99709.81;4195901;83;21156;-83
2021/06/04 13:24:19;;;;;;;8.80;2.90;;;;;;;25.27;31.98;99703.52;4182649;84;20998;-79
2021/06/04 13:30:22;;;;;;;7.33;3.25;;;;;;;24.99;31.70;99698.95;4175910;84;21058;-80
2021/06/04 13:36:26;;;;;;;2.98;2.12;;;;;;;25.02;31.49;99695.24;4180766;84;21113;-80
2021/06/04 13:42:36;;;;;;;5.03;2.62;;;;;;;24.95;32.17;99664.67;4164768;83;21081;-79
2021/06/04 13:48:38;;;;;;;7.28;3.00;;;;;;;25.09;32.77;99683.76;4187488;83;21029;-80
2021/06/04 13:54:55;;;;;;;5.00;2.90;;;;;;;25.05;33.06;99685.92;4174164;84;21110;-79
2021/06/04 14:01:24;;;;;;;5.60;3.50;;;;;;;25.01;33.01;99678.89;4164855;83;21958;-79
2021/06/04 14:07:38;;;;;;;4.58;2.70;;;;;;;25.17;32.55;99682.88;4151827;84;21047;-79
2021/06/04 14:13:51;;;;;;;5.17;3.08;;;;;;;24.57;32.23;99649.41;4151207;84;21022;-79
2021/06/04 14:20:16;;;;;;;5.08;2.67;;;;;;;24.57;32.23;99649.41;4156535;84;21086;-84
2021/06/04 14:26:29;;;;;;;2.80;2.40;;;;;;;24.78;32.92;99676.52;4139450;83;21038;-80
2021/06/04 14:32:40;;;;;;;4.05;2.50;;;;;;;24.85;33.25;99674.88;4142042;84;21101;-80
2021/06/04 14:38:46;;;;;;;3.27;2.37;;;;;;;25.03;33.05;99678.59;4121870;83;21026;-83
2021/06/04 14:44:50;;;;;;;3.55;2.35;;;;;;;25.08;30.38;99671.00;4125989;84;21594;-80
2021/06/04 14:50:57;;;;;;;3.55;2.70;;;;;;;24.88;32.69;99666.95;4129287;84;21554;-80
2021/06/04 14:57:01;;;;;;;3.90;2.80;;;;;;;25.14;32.26;99659.98;4131379;84;21858;-79
2021/06/04 15:03:05;;;;;;;4.97;3.00;;;;;;;25.36;32.19;99658.76;4136242;84;21007;-79
2021/06/04 15:09:06;;;;;;;6.05;2.70;;;;;;;25.38;31.73;99656.90;4109995;84;21033;-81
2021/06/04 15:15:13;;;;;;;7.22;2.90;;;;;;;25.39;31.76;99648.64;4141578;83;21709;-79
2021/06/04 15:21:19;;;;;;;3.42;2.60;;;;;;;25.21;31.91;99652.72;4145489;84;21063;-79
2021/06/04 15:27:21;;;;;;;5.95;2.83;;;;;;;25.03;31.81;99640.77;4144360;83;21066;-80
2021/06/04 15:33:22;;;;;;;5.72;2.77;;;;;;;24.87;31.77;99643.00;4142265;84;21054;-79
2021/06/04 15:39:23;;;;;;;6.03;2.55;;;;;;;24.68;31.79;99636.48;4141345;84;21061;-79
2021/06/04 15:45:29;;;;;;;3.30;2.22;;;;;;;24.52;31.56;99636.63;4163795;84;21018;-79
2021/06/04 15:51:31;;;;;;;3.60;2.52;;;;;;;24.41;32.05;99630.62;4128814;84;21514;-80
2021/06/04 15:57:34;;;;;;;3.95;2.75;;;;;;;24.28;31.96;99622.27;4148425;84;21062;-79
2021/06/04 16:03:36;;;;;;;5.87;3.37;;;;;;;24.22;31.85;99625.47;4153082;84;21014;-80
2021/06/04 16:09:38;;;;;;;4.60;3.22;;;;;;;24.19;33.28;99627.77;4168452;84;21090;-79
2021/06/04 16:15:44;;;;;;;10.93;3.00;;;;;;;24.04;32.90;99628.70;4140885;84;21043;-79
2021/06/04 16:21:45;;;;;;;4.67;2.60;;;;;;;24.02;32.85;99632.56;4154895;84;21038;-79
2021/06/04 16:27:48;;;;;;;9.95;3.15;;;;;;;23.95;32.81;99621.56;4147624;83;21043;-79
2021/06/04 16:33:49;;;;;;;4.95;2.85;;;;;;;23.90;33.26;99620.13;4155516;84;21539;-79
2021/06/04 16:39:51;;;;;;;7.22;2.55;;;;;;;23.80;33.11;99619.87;4148209;83;21057;-79
2021/06/04 16:45:54;;;;;;;3.55;2.70;;;;;;;23.63;33.21;99621.83;4163302;83;22676;-80
2021/06/04 16:51:56;;;;;;;7.15;3.40;;;;;;;23.42;33.79;99610.70;4139174;84;21059;-78
2021/06/04 16:58:17;;;;;;;10.20;2.80;;;;;;;23.18;34.06;99619.19;4154409;84;21061;-78
2021/06/04 17:04:18;;;;;;;3.83;2.60;;;;;;;22.93;34.56;99618.53;4164758;83;21041;-79
2021/06/04 17:10:22;;;;;;;9.30;3.45;;;;;;;22.75;34.85;99619.66;4202198;84;21538;-80
2021/06/04 17:16:24;;;;;;;6.53;2.83;;;;;;;22.65;35.15;99620.73;4190177;83;21053;-83
2021/06/04 17:22:27;;;;;;;3.67;2.50;;;;;;;22.60;35.53;99610.10;4186750;84;21081;-78
2021/06/04 17:28:33;;;;;;;17.42;4.78;;;;;;;22.53;35.96;99608.92;4161261;83;21569;-79
2021/06/04 17:34:32;;;;;;;8.40;3.98;;;;;;;22.47;36.36;99612.65;4192224;84;21122;-78
2021/06/04 17:40:34;;;;;;;4.83;2.90;;;;;;;22.36;36.41;99612.16;4198464;83;21602;-78
2021/06/04 17:47:25;;;;;;;107.15;28.83;;;;;;;22.18;36.71;99622.38;4223340;84;21030;-78
2021/06/04 17:53:29;;;;;;;10.38;3.92;;;;;;;21.95;37.40;99623.17;4228155;83;21113;-79
2021/06/04 17:59:30;;;;;;;10.05;6.65;;;;;;;21.65;37.70;99625.06;4066349;83;10000032;-79
2021/06/04 18:05:37;;;;;;;6.67;3.83;;;;;;;21.43;37.90;99619.01;4170055;83;21062;-78
2021/06/04 18:11:40;;;;;;;;;;;;;;;21.19;38.22;99614.80;4152971;84;21134;-79
2021/06/04 18:17:43;;;;;;;12.68;3.65;;;;;;;20.97;39.20;99608.11;4154340;84;20218;-78
2021/06/04 18:23:48;;;;;;;10.35;3.25;;;;;;;20.69;39.34;99608.66;4141094;84;21042;-78
2021/06/04 18:29:49;;;;;;;7.95;3.47;;;;;;;20.51;39.64;99620.73;4187707;84;21011;-78
2021/06/04 18:35:52;;;;;;;4.95;3.10;;;;;;;20.27;40.04;99617.20;4143087;84;20991;-78
2021/06/04 18:41:57;;;;;;;8.10;3.77;;;;;;;20.06;40.17;99609.98;4148303;84;21987;-78
2021/06/04 18:47:59;;;;;;;9.60;3.95;;;;;;;19.90;40.51;99604.92;4131826;83;21002;-78
2021/06/04 18:54:02;;;;;;;8.30;4.03;;;;;;;19.75;40.87;99614.67;4141988;83;21046;-79
2021/06/04 19:00:18;;;;;;;10.38;4.00;;;;;;;19.51;41.46;99618.64;4055013;83;10000038;-78
2021/06/04 19:06:24;;;;;;;9.30;4.15;;;;;;;19.23;42.08;99630.89;4174788;84;21065;-79
2021/06/04 19:12:25;;;;;;;10.65;4.87;;;;;;;18.87;43.09;99630.39;4178820;84;21018;-78
2021/06/04 19:18:27;;;;;;;8.78;5.08;;;;;;;18.63;43.56;99634.44;4159980;84;22157;-78
2021/06/04 19:24:29;;;;;;;9.30;6.22;;;;;;;18.49;44.15;99635.98;4186433;83;21444;-78
2021/06/04 19:30:35;;;;;;;9.20;6.22;;;;;;;18.21;44.92;99636.20;4177096;84;20974;-78
2021/06/04 19:36:36;;;;;;;13.58;6.53;;;;;;;17.87;46.03;99642.25;4178113;83;20978;-78
2021/06/04 19:42:38;;;;;;;12.88;7.35;;;;;;;17.57;46.83;99635.16;4169471;84;21014;-78
2021/06/04 19:48:39;;;;;;;14.68;10.35;;;;;;;17.39;47.99;99638.61;4173585;83;21015;-82
2021/06/04 19:54:43;;;;;;;26.10;12.78;;;;;;;17.26;48.85;99631.96;4185926;83;21526;-78
2021/06/04 20:00:46;;;;;;;20.50;11.60;;;;;;;17.26;48.90;99634.73;4170914;84;21503;-80
2021/06/04 20:06:53;;;;;;;18.25;9.13;;;;;;;17.31;49.57;99631.55;4161472;84;21438;-78
2021/06/04 20:12:54;;;;;;;21.15;9.63;;;;;;;17.37;50.82;99635.45;4169913;84;20982;-78
2021/06/04 20:18:59;;;;;;;19.82;10.78;;;;;;;17.46;51.83;99630.28;4154277;84;21153;-79
2021/06/04 20:25:12;;;;;;;21.85;11.68;;;;;;;17.44;51.91;99626.33;4165432;84;21339;-79
2021/06/04 20:31:19;;;;;;;30.57;14.03;;;;;;;17.42;52.31;99629.50;4186769;83;21097;-78
2021/06/04 20:37:20;;;;;;;37.35;18.02;;;;;;;17.37;52.40;99620.23;4162286;84;20986;-79
2021/06/04 20:43:24;;;;;;;34.03;15.00;;;;;;;17.26;52.83;99618.74;4177048;83;21078;-79
2021/06/04 20:49:25;;;;;;;36.60;18.27;;;;;;;17.14;53.45;99615.25;4173492;83;21577;-79
2021/06/04 20:55:30;;;;;;;41.92;21.68;;;;;;;17.11;53.98;99620.20;4175258;84;21006;-83
2021/06/04 21:01:33;;;;;;;35.73;18.12;;;;;;;17.04;54.50;99613.90;4152861;83;20989;-79
2021/06/04 21:07:35;;;;;;;46.50;21.17;;;;;;;16.97;55.34;99618.09;4154455;84;21555;-81
2021/06/04 21:13:37;;;;;;;43.15;21.30;;;;;;;16.87;55.52;99609.24;4154535;84;21014;-79
2021/06/04 21:19:38;;;;;;;36.80;18.35;;;;;;;16.72;55.55;99613.27;4159223;84;21094;-79
2021/06/04 21:25:44;;;;;;;38.23;19.20;;;;;;;16.71;56.82;99611.09;4161706;84;21066;-79
2021/06/04 21:31:48;;;;;;;37.45;17.87;;;;;;;16.71;57.09;99608.32;4164881;84;21081;-78
2021/06/04 21:37:49;;;;;;;34.90;16.30;;;;;;;16.58;57.61;99615.50;4154497;84;21058;-79
2021/06/04 21:43:53;;;;;;;28.15;15.48;;;;;;;16.58;57.81;99616.08;4151234;84;20995;-79
2021/06/04 21:49:54;;;;;;;24.20;14.20;;;;;;;16.58;57.96;99596.15;4163056;84;21042;-79
2021/06/04 21:55:57;;;;;;;21.77;13.93;;;;;;;16.52;58.70;99599.11;4165709;83;22323;-79
2021/06/04 22:01:58;;;;;;;30.02;15.80;;;;;;;16.49;59.01;99582.56;4163934;84;21051;-79
2021/06/04 22:08:00;;;;;;;25.45;14.00;;;;;;;16.47;59.51;99580.78;4155680;84;21029;-78
2021/06/04 22:14:02;;;;;;;22.58;13.25;;;;;;;16.42;59.86;99593.00;4169199;83;21015;-78
2021/06/04 22:20:07;;;;;;;25.62;14.83;;;;;;;16.50;60.31;99586.89;4162968;83;21065;-79
2021/06/04 22:26:11;;;;;;;27.15;15.20;;;;;;;16.52;60.57;99575.61;4155415;84;21565;-78
2021/06/04 22:32:14;;;;;;;23.57;13.00;;;;;;;16.54;60.89;99576.59;4164054;83;21061;-78
2021/06/04 22:38:15;;;;;;;27.50;15.18;;;;;;;16.61;61.31;99584.88;4151016;83;21066;-79
2021/06/04 22:44:17;;;;;;;28.47;15.13;;;;;;;16.54;61.43;99581.53;4150784;83;21042;-78
2021/06/04 22:50:22;;;;;;;27.17;15.18;;;;;;;16.43;61.51;99582.13;4163246;83;21038;-78
2021/06/04 22:56:23;;;;;;;24.18;14.13;;;;;;;16.35;62.12;99574.28;4147088;84;21070;-79
2021/06/04 23:02:25;;;;;;;33.38;15.58;;;;;;;16.15;62.26;99567.59;4182744;83;21030;-78
2021/06/04 23:08:29;;;;;;;26.02;15.40;;;;;;;15.84;62.46;99568.44;4193213;83;21022;-78
2021/06/04 23:14:31;;;;;;;26.50;14.07;;;;;;;15.65;63.28;99559.40;4185875;84;21077;-78
2021/06/04 23:20:34;;;;;;;28.17;14.87;;;;;;;15.75;63.79;99564.72;4191753;83;21085;-78
2021/06/04 23:26:36;;;;;;;25.57;14.50;;;;;;;15.88;64.06;99569.24;4185496;84;21660;-79
2021/06/04 23:32:38;;;;;;;24.90;14.93;;;;;;;16.04;64.07;99569.01;4175333;84;21073;-78
2021/06/04 23:38:42;;;;;;;22.52;14.60;;;;;;;16.03;64.23;99570.20;4179389;84;21082;-79
2021/06/04 23:44:44;;;;;;;31.33;16.10;;;;;;;16.03;64.43;99563.30;4185151;84;21057;-78
2021/06/04 23:50:45;;;;;;;30.77;16.87;;;;;;;15.95;64.50;99558.97;4182808;84;21398;-79
2021/06/04 23:56:48;;;;;;;28.67;16.35;;;;;;;15.86;64.96;99559.18;4186359;83;21514;-78
